Time;durP1;ratioP1;P1;durP2;ratioP2;P2;SDS_P1;SDS_P2;PMS_P1;PMS_P2;Temp;Humidity;BMP_temperature;BMP_pressure;BME280_temperature;BME280_humidity;BME280_pressure;Samples;Min_cycle;Max_cycle;Signal;HPM_P1;HPM_P2
2023/08/25 00:01:16;;;;;;;12.93;8.90;;;23.20;99.90;;;;;;5055988;28;20508;-50
2023/08/25 00:03:42;;;;;;;9.52;8.48;;;23.20;99.90;;;;;;5055865;28;20154;-50
2023/08/25 00:06:07;;;;;;;12.68;8.70;;;23.20;99.90;;;;;;4988382;28;20051;-50
2023/08/25 00:08:34;;;;;;;10.90;8.60;;;;;;;;;;5055577;28;20024;-50
2023/08/25 00:11:00;;;;;;;9.90;8.13;;;;;;;;;;5055856;28;20025;-50
2023/08/25 00:13:26;;;;;;;11.60;9.27;;;23.00;99.90;;;;;;5055717;28;20025;-50
2023/08/25 00:15:51;;;;;;;9.30;8.32;;;23.00;99.90;;;;;;4971705;28;20043;-50
2023/08/25 00:18:17;;;;;;;10.40;8.30;;;23.00;99.90;;;;;;5004292;28;20040;-49
2023/08/25 00:20:43;;;;;;;11.75;8.32;;;23.10;99.90;;;;;;5055493;28;20033;-50
2023/08/25 00:23:08;;;;;;;9.85;8.23;;;23.20;99.90;;;;;;5055598;28;20455;-50
2023/08/25 00:25:34;;;;;;;8.88;7.97;;;23.20;99.90;;;;;;5055353;28;20021;-50
2023/08/25 00:28:00;;;;;;;11.35;8.45;;;23.20;99.90;;;;;;5054859;28;20036;-50
2023/08/25 00:30:27;;;;;;;12.02;8.20;;;23.40;99.90;;;;;;5055807;28;20025;-50
2023/08/25 00:32:53;;;;;;;11.02;8.63;;;;;;;;;;5020253;28;20065;-50
2023/08/25 00:35:19;;;;;;;8.75;7.85;;;23.50;99.90;;;;;;5055333;28;20045;-50
2023/08/25 00:37:44;;;;;;;9.13;7.78;;;23.70;99.90;;;;;;5055091;28;20032;-50
2023/08/25 00:40:10;;;;;;;11.43;7.95;;;23.80;99.90;;;;;;5055215;28;20025;-50
2023/08/25 00:42:36;;;;;;;9.45;7.53;;;24.00;99.90;;;;;;4987565;28;20040;-50
2023/08/25 00:45:03;;;;;;;11.15;8.27;;;;;;;;;;5055235;28;20025;-50
2023/08/25 00:47:29;;;;;;;10.25;7.88;;;;;;;;;;5020258;28;20045;-50
2023/08/25 00:49:55;;;;;;;10.38;7.72;;;24.50;99.90;;;;;;5055212;28;20021;-50
2023/08/25 00:52:22;;;;;;;9.60;8.02;;;24.60;99.90;;;;;;5054858;28;20021;-50
2023/08/25 00:54:50;;;;;;;10.68;8.60;;;;;;;;;;5055504;28;20112;-50
2023/08/25 00:57:16;;;;;;;8.30;7.18;;;;;;;;;;5055313;28;20028;-50
2023/08/25 00:59:42;;;;;;;10.25;8.18;;;24.70;99.90;;;;;;5019796;28;20045;-51
2023/08/25 01:02:09;;;;;;;9.30;7.90;;;;;;;;;;5054864;28;20466;-50
2023/08/25 01:04:35;;;;;;;11.43;8.00;;;;;;;;;;5019986;28;20061;-50
2023/08/25 01:07:01;;;;;;;11.48;8.05;;;;;;;;;;5054605;28;20044;-50
2023/08/25 01:09:27;;;;;;;13.45;8.15;;;24.90;99.90;;;;;;5054777;28;20481;-50
2023/08/25 01:12:08;;;;;;;9.77;7.93;;;25.00;99.90;;;;;;5054952;28;20041;-50
2023/08/25 01:14:58;;;;;;;13.80;8.43;;;25.00;99.90;;;;;;5054750;28;20033;-50
2023/08/25 01:17:36;;;;;;;12.77;8.35;;;25.00;99.90;;;;;;5054614;28;20025;-50
2023/08/25 01:20:06;;;;;;;9.02;7.72;;;25.00;99.90;;;;;;5054319;28;20025;-50
2023/08/25 01:22:56;;;;;;;10.70;8.38;;;25.00;99.90;;;;;;5019368;28;20095;-51
2023/08/25 01:25:27;;;;;;;9.57;8.60;;;25.10;99.90;;;;;;5054460;28;20033;-50
2023/08/25 01:28:01;;;;;;;10.93;7.95;;;25.00;99.90;;;;;;5054233;28;20036;-50
2023/08/25 01:30:30;;;;;;;10.13;8.38;;;24.90;99.90;;;;;;5020849;28;20033;-50
2023/08/25 01:32:55;;;;;;;10.88;9.23;;;24.90;99.90;;;;;;5054182;28;20033;-50
2023/08/25 01:35:41;;;;;;;10.57;9.30;;;24.90;99.90;;;;;;5053979;28;20588;-50
2023/08/25 01:38:15;;;;;;;11.13;8.65;;;24.80;99.90;;;;;;5019099;28;20045;-50
2023/08/25 01:41:11;;;;;;;13.70;8.82;;;24.80;99.90;;;;;;5053886;28;20029;-50
2023/08/25 01:43:46;;;;;;;10.25;8.80;;;24.80;99.90;;;;;;5053931;28;20024;-50
2023/08/25 01:46:15;;;;;;;12.35;9.70;;;24.80;99.90;;;;;;5054101;28;20043;-50
2023/08/25 01:48:43;;;;;;;11.90;9.38;;;24.80;99.90;;;;;;5053914;28;20120;-50
2023/08/25 01:51:10;;;;;;;10.27;9.38;;;24.70;99.90;;;;;;5035893;28;20032;-50
2023/08/25 01:53:36;;;;;;;11.77;9.48;;;24.70;99.90;;;;;;5054022;28;20079;-51
2023/08/25 01:56:02;;;;;;;11.43;9.75;;;24.60;99.90;;;;;;5054227;28;20029;-50
2023/08/25 01:58:28;;;;;;;9.93;8.93;;;24.50;99.90;;;;;;5018943;28;20060;-50
2023/08/25 02:00:54;;;;;;;12.95;9.77;;;24.60;99.90;;;;;;5053515;28;20508;-50
2023/08/25 02:03:19;;;;;;;10.80;9.18;;;24.60;99.90;;;;;;5053070;28;20033;-50
2023/08/25 02:05:45;;;;;;;15.10;9.98;;;24.60;99.90;;;;;;5054154;28;20468;-50
2023/08/25 02:08:11;;;;;;;12.35;8.60;;;24.50;99.90;;;;;;5053542;28;20028;-50
2023/08/25 02:10:37;;;;;;;12.32;9.85;;;24.50;99.90;;;;;;5018717;28;20041;-50
2023/08/25 02:13:02;;;;;;;13.35;9.30;;;24.50;99.90;;;;;;5053680;28;20109;-50
2023/08/25 02:15:28;;;;;;;11.10;9.75;;;24.50;99.90;;;;;;5018467;28;20041;-50
2023/08/25 02:17:54;;;;;;;10.77;9.68;;;24.50;99.90;;;;;;5018465;28;20039;-50
2023/08/25 02:20:20;;;;;;;12.77;9.57;;;24.50;99.90;;;;;;5053340;28;20021;-50
2023/08/25 02:22:45;;;;;;;11.52;9.90;;;24.50;99.90;;;;;;5053273;28;20025;-50
2023/08/25 02:25:11;;;;;;;12.00;9.65;;;24.40;99.90;;;;;;5053376;28;20495;-50
2023/08/25 02:27:37;;;;;;;12.07;9.88;;;24.40;99.90;;;;;;5053268;28;20043;-50
2023/08/25 02:30:03;;;;;;;18.73;10.52;;;24.40;99.90;;;;;;5018375;28;20037;-50
2023/08/25 02:32:29;;;;;;;15.60;10.50;;;24.40;99.90;;;;;;4969388;28;20118;-50
2023/08/25 02:34:55;;;;;;;18.80;10.00;;;24.40;99.90;;;;;;5052831;28;20048;-51
2023/08/25 02:37:21;;;;;;;10.50;9.50;;;24.40;99.90;;;;;;5053111;28;20037;-50
2023/08/25 02:39:46;;;;;;;11.88;9.95;;;24.40;99.90;;;;;;5053631;28;20033;-50
2023/08/25 02:42:12;;;;;;;11.07;9.98;;;24.50;99.90;;;;;;5053375;28;20492;-50
2023/08/25 02:44:38;;;;;;;12.02;10.82;;;24.40;99.90;;;;;;5053058;28;20044;-50
2023/08/25 02:47:04;;;;;;;17.35;10.00;;;24.40;99.90;;;;;;5053304;28;20436;-50
2023/08/25 02:49:30;;;;;;;15.75;11.45;;;24.40;99.90;;;;;;5018243;28;20037;-50
2023/08/25 02:51:56;;;;;;;15.30;10.40;;;24.40;99.90;;;;;;5053225;28;20100;-50
2023/08/25 02:54:25;;;;;;;12.40;10.50;;;24.50;99.90;;;;;;5052904;28;20036;-50
2023/08/25 02:56:51;;;;;;;11.05;9.40;;;24.50;99.90;;;;;;5053053;28;20076;-50
2023/08/25 02:59:16;;;;;;;16.42;10.20;;;24.40;99.90;;;;;;5052843;28;20092;-50
2023/08/25 03:01:42;;;;;;;12.27;10.02;;;24.40;99.90;;;;;;5052891;28;20044;-50
2023/08/25 03:04:08;;;;;;;13.68;10.18;;;24.40;99.90;;;;;;5052516;28;20033;-50
2023/08/25 03:06:33;;;;;;;11.55;10.30;;;24.20;99.90;;;;;;5017814;28;20044;-51
2023/08/25 03:09:00;;;;;;;13.60;9.80;;;24.20;99.90;;;;;;5053160;28;20033;-51
2023/08/25 03:11:26;;;;;;;11.38;9.77;;;;;;;;;;5052782;28;20029;-50
2023/08/25 03:13:52;;;;;;;10.45;8.98;;;23.40;99.90;;;;;;5018106;28;20041;-50
2023/08/25 03:16:18;;;;;;;12.15;9.45;;;;;;;;;;5021739;28;20396;-50
2023/08/25 03:18:44;;;;;;;12.25;9.98;;;22.60;99.90;;;;;;5056773;28;20028;-50
2023/08/25 03:21:10;;;;;;;12.32;9.95;;;22.30;99.90;;;;;;5056625;28;20451;-50
2023/08/25 03:23:35;;;;;;;13.35;10.18;;;22.10;99.90;;;;;;5021722;28;20110;-50
2023/08/25 03:26:04;;;;;;;10.93;9.90;;;21.90;99.90;;;;;;5021540;28;20041;-51
2023/08/25 03:28:30;;;;;;;10.82;9.65;;;;;;;;;;5055474;28;20033;-50
2023/08/25 03:30:56;;;;;;;11.40;10.10;;;;;;;;;;5040949;28;20067;-50
2023/08/25 03:33:22;;;;;;;9.70;8.65;;;;;;;;;;5036491;28;20049;-51
2023/08/25 03:35:48;;;;;;;10.43;9.35;;;;;;;;;;5001990;28;20091;-50
2023/08/25 03:38:15;;;;;;;14.70;10.80;;;;;;;;;;5036383;28;20083;-50
2023/08/25 03:40:43;;;;;;;11.02;9.93;;;;;;;;;;4985569;28;20048;-50
2023/08/25 03:43:09;;;;;;;10.95;9.70;;;;;;;;;;5036366;28;20128;-51
2023/08/25 03:45:36;;;;;;;11.38;10.20;;;21.10;99.90;;;;;;5036221;28;20029;-50
2023/08/25 03:48:02;;;;;;;12.45;10.18;;;21.20;99.90;;;;;;5036536;28;20040;-50
2023/08/25 03:50:28;;;;;;;11.75;9.95;;;21.20;99.90;;;;;;5001894;28;20037;-50
2023/08/25 03:52:54;;;;;;;12.10;10.38;;;;;;;;;;5001337;28;20500;-50
2023/08/25 03:55:21;;;;;;;13.32;10.32;;;;;;;;;;5036231;28;20036;-50
2023/08/25 03:57:47;;;;;;;13.52;10.75;;;;;;;;;;5001926;28;20374;-50
2023/08/25 04:00:13;;;;;;;11.75;9.43;;;;;;;;;;5017595;28;20124;-50
2023/08/25 04:02:39;;;;;;;13.68;10.07;;;;;;;;;;4985349;28;20129;-50
2023/08/25 04:05:07;;;;;;;11.90;9.95;;;;;;;;;;5036255;28;20028;-50
2023/08/25 04:07:33;;;;;;;10.90;9.75;;;;;;;;;;4985520;28;20042;-51
2023/08/25 04:09:59;;;;;;;12.52;10.30;;;;;;;;;;5035822;28;20025;-50
2023/08/25 04:12:25;;;;;;;12.00;9.73;;;;;;;;;;5001036;28;20033;-50
2023/08/25 04:14:51;;;;;;;10.00;9.00;;;;;;;;;;4994147;28;20586;-50
2023/08/25 04:17:17;;;;;;;10.25;8.95;;;;;;;;;;4994169;28;20594;-50
2023/08/25 04:19:43;;;;;;;10.00;8.57;;;;;;;;;;4994122;28;20054;-50
2023/08/25 04:22:09;;;;;;;12.50;9.63;;;;;;;;;;4994341;28;20045;-51
2023/08/25 04:24:35;;;;;;;12.90;9.55;;;;;;;;;;4961602;28;20038;-50
2023/08/25 04:27:01;;;;;;;13.45;9.70;;;;;;;;;;4993223;28;20038;-50
2023/08/25 04:29:28;;;;;;;11.98;8.88;;;;;;;;;;5001909;28;20055;-50
2023/08/25 04:31:54;;;;;;;12.80;9.05;;;;;;;;;;4959350;28;20030;-50
2023/08/25 04:34:20;;;;;;;13.23;8.93;;;;;;;;;;5013440;28;20045;-50
2023/08/25 04:36:46;;;;;;;11.88;8.52;;;;;;;;;;4965022;28;20048;-50
2023/08/25 04:39:13;;;;;;;12.30;9.38;;;22.70;99.90;;;;;;5015743;28;20022;-51
2023/08/25 04:41:40;;;;;;;14.70;9.88;;;23.00;99.90;;;;;;5013400;28;20045;-50
2023/08/25 04:44:06;;;;;;;10.65;8.93;;;23.10;99.90;;;;;;4996979;28;20046;-50
2023/08/25 04:46:32;;;;;;;11.45;9.68;;;;;;;;;;5052985;28;20045;-50
2023/08/25 04:48:58;;;;;;;10.93;9.77;;;;;;;;;;5064189;28;20364;-50
2023/08/25 04:51:24;;;;;;;10.23;9.32;;;;;;;;;;5064556;28;20044;-50
2023/08/25 04:53:50;;;;;;;12.45;9.13;;;23.40;99.90;;;;;;5012943;28;20086;-50
2023/08/25 04:56:17;;;;;;;11.82;9.48;;;23.20;99.90;;;;;;5064039;28;20493;-50
2023/08/25 04:58:43;;;;;;;10.38;9.00;;;23.20;99.90;;;;;;5014319;28;20033;-50
2023/08/25 05:01:09;;;;;;;11.65;9.57;;;;;;;;;;5063810;28;20036;-50
2023/08/25 05:03:35;;;;;;;13.32;9.55;;;23.30;99.90;;;;;;5063688;28;20494;-50
2023/08/25 05:06:01;;;;;;;10.80;9.35;;;;;;;;;;5059916;28;20124;-50
2023/08/25 05:08:27;;;;;;;17.80;9.55;;;;;;;;;;5003669;28;20495;-50
2023/08/25 05:10:53;;;;;;;11.10;9.30;;;23.90;99.90;;;;;;5054859;28;20033;-50
2023/08/25 05:13:19;;;;;;;11.23;9.00;;;;;;;;;;5054552;28;20449;-51
2023/08/25 05:15:45;;;;;;;11.60;9.68;;;;;;;;;;5003645;28;20037;-50
2023/08/25 05:18:11;;;;;;;10.55;8.43;;;;;;;;;;5054728;28;20025;-50
2023/08/25 05:20:37;;;;;;;10.55;9.45;;;;;;;;;;4968745;28;20036;-50
2023/08/25 05:23:03;;;;;;;11.05;8.95;;;24.80;99.90;;;;;;5055854;28;20075;-50
2023/08/25 05:25:29;;;;;;;10.40;8.90;;;25.00;99.90;;;;;;5003083;28;20037;-50
2023/08/25 05:27:55;;;;;;;9.60;8.70;;;;;;;;;;5054262;28;20076;-50
2023/08/25 05:30:21;;;;;;;10.10;8.88;;;;;;;;;;5054697;28;20033;-50
2023/08/25 05:32:46;;;;;;;20.02;8.77;;;25.60;99.90;;;;;;5054265;28;20032;-50
2023/08/25 05:35:13;;;;;;;12.85;8.73;;;;;;;;;;4999243;28;20401;-50
2023/08/25 05:37:40;;;;;;;10.32;8.38;;;;;;;;;;5033831;28;20037;-50
2023/08/25 05:40:07;;;;;;;12.98;8.45;;;;;;;;;;5034375;28;20374;-50
2023/08/25 05:42:33;;;;;;;15.45;8.55;;;25.50;99.90;;;;;;4999773;28;20115;-51
2023/08/25 05:44:59;;;;;;;9.35;8.27;;;25.60;99.90;;;;;;5034102;28;20040;-50
2023/08/25 05:47:25;;;;;;;10.27;8.65;;;;;;;;;;5034050;28;20034;-50
2023/08/25 05:49:51;;;;;;;11.65;8.95;;;25.70;99.90;;;;;;5034195;28;20045;-50
2023/08/25 05:52:17;;;;;;;10.95;9.48;;;25.90;99.90;;;;;;5015734;28;20123;-50
2023/08/25 05:54:42;;;;;;;11.57;9.60;;;26.00;99.90;;;;;;5033694;28;20616;-50
2023/08/25 05:57:08;;;;;;;10.77;9.05;;;26.00;99.90;;;;;;5031598;28;20029;-50
2023/08/25 05:59:34;;;;;;;9.82;8.82;;;26.00;99.90;;;;;;5033752;28;20389;-50
2023/08/25 06:02:00;;;;;;;10.60;8.85;;;26.20;99.90;;;;;;5015591;28;20112;-50
2023/08/25 06:04:27;;;;;;;11.70;8.65;;;;;;;;;;5033653;28;20041;-51
2023/08/25 06:06:53;;;;;;;9.95;8.95;;;;;;;;;;5033651;28;20047;-50
2023/08/25 06:09:19;;;;;;;10.65;8.00;;;;;;;;;;5033675;28;20049;-50
2023/08/25 06:11:45;;;;;;;9.57;8.30;;;27.00;99.90;;;;;;5033467;28;20026;-50
2023/08/25 06:14:11;;;;;;;9.55;8.50;;;27.10;99.90;;;;;;5011989;28;20099;-50
2023/08/25 06:16:41;;;;;;;9.75;8.75;;;27.20;99.90;;;;;;5027916;28;20037;-50
2023/08/25 06:19:08;;;;;;;11.88;8.75;;;;;;;;;;5033012;28;20079;-50
2023/08/25 06:21:34;;;;;;;9.77;8.70;;;;;;;;;;5032694;28;20036;-51
2023/08/25 06:24:00;;;;;;;9.93;8.27;;;27.70;99.90;;;;;;5031551;28;20033;-50
2023/08/25 06:26:26;;;;;;;11.30;8.07;;;;;;;;;;5032651;28;20033;-50
2023/08/25 06:28:53;;;;;;;10.63;8.73;;;27.80;99.90;;;;;;5032749;28;20022;-50
2023/08/25 06:31:18;;;;;;;10.77;8.50;;;27.70;99.90;;;;;;5015196;28;20037;-50
2023/08/25 06:33:45;;;;;;;14.38;9.02;;;27.70;99.90;;;;;;5036371;28;20399;-50
2023/08/25 06:36:11;;;;;;;14.93;9.43;;;27.80;99.90;;;;;;5053154;28;20542;-50
2023/08/25 06:38:37;;;;;;;11.73;9.30;;;27.80;99.90;;;;;;5053068;28;20112;-50
2023/08/25 06:41:03;;;;;;;15.32;8.57;;;27.80;99.90;;;;;;5051286;28;20167;-50
2023/08/25 06:43:29;;;;;;;15.60;9.27;;;27.90;99.90;;;;;;5053234;28;20457;-50
2023/08/25 06:45:56;;;;;;;13.52;9.43;;;28.00;99.90;;;;;;5052981;28;20570;-50
2023/08/25 06:48:22;;;;;;;12.00;9.57;;;28.10;99.90;;;;;;5034778;28;20037;-50
2023/08/25 06:50:48;;;;;;;14.82;9.65;;;28.30;99.90;;;;;;5052727;28;20079;-50
2023/08/25 06:53:13;;;;;;;11.13;8.98;;;28.40;99.90;;;;;;5053116;28;20409;-50
2023/08/25 06:55:39;;;;;;;17.45;9.65;;;;;;;;;;5052902;28;20025;-50
2023/08/25 06:58:08;;;;;;;16.25;9.43;;;28.80;99.90;;;;;;5052970;28;20079;-50
2023/08/25 07:00:34;;;;;;;16.17;10.60;;;28.80;99.90;;;;;;5034806;28;20033;-50
2023/08/25 07:03:01;;;;;;;14.63;8.88;;;28.80;99.90;;;;;;5052986;28;20025;-50
2023/08/25 07:05:27;;;;;;;15.27;8.77;;;29.00;99.90;;;;;;5053289;28;20116;-50
2023/08/25 07:07:53;;;;;;;13.63;8.52;;;;;;;;;;5053243;28;20116;-50
2023/08/25 07:10:20;;;;;;;14.40;8.88;;;29.50;99.90;;;;;;5052857;28;20033;-50
2023/08/25 07:12:46;;;;;;;15.63;9.43;;;;;;;;;;5052772;28;20434;-50
2023/08/25 07:15:12;;;;;;;13.20;10.30;;;;;;;;;;5050853;28;20082;-50
2023/08/25 07:17:39;;;;;;;17.30;11.02;;;;;;;;;;5052830;28;20107;-50
2023/08/25 07:20:06;;;;;;;11.32;9.57;;;29.50;99.90;;;;;;5052978;28;20021;-50
2023/08/25 07:22:32;;;;;;;13.77;9.60;;;29.30;99.90;;;;;;5001419;28;20033;-51
2023/08/25 07:24:58;;;;;;;10.60;8.75;;;29.60;99.90;;;;;;5050756;28;20026;-51
2023/08/25 07:27:24;;;;;;;14.00;8.40;;;29.70;99.90;;;;;;5048951;28;20068;-50
2023/08/25 07:29:53;;;;;;;13.60;8.60;;;29.70;99.90;;;;;;5006997;28;20041;-52
2023/08/25 07:32:22;;;;;;;9.95;7.55;;;29.50;99.90;;;;;;5022543;28;20100;-51
2023/08/25 07:34:48;;;;;;;13.02;8.63;;;29.50;99.90;;;;;;5044100;28;20045;-51
2023/08/25 07:37:14;;;;;;;11.75;9.13;;;29.50;99.90;;;;;;5010634;28;20079;-51
2023/08/25 07:39:40;;;;;;;10.40;8.63;;;30.10;99.90;;;;;;5061042;28;20028;-51
2023/08/25 07:42:10;;;;;;;10.63;7.65;;;30.10;99.90;;;;;;5058200;28;20056;-51
2023/08/25 07:44:37;;;;;;;11.55;8.10;;;30.40;99.90;;;;;;5061579;28;20383;-51
2023/08/25 07:47:04;;;;;;;9.77;7.97;;;30.50;99.90;;;;;;5062856;28;20037;-51
2023/08/25 07:49:31;;;;;;;10.43;8.40;;;30.50;99.90;;;;;;5061329;28;20033;-51
2023/08/25 07:51:57;;;;;;;11.98;8.63;;;30.50;99.90;;;;;;5061186;28;20031;-51
2023/08/25 07:54:23;;;;;;;11.85;8.10;;;;;;;;;;5062967;28;20024;-51
2023/08/25 07:56:49;;;;;;;15.68;8.50;;;;;;;;;;5068775;28;20044;-51
2023/08/25 07:59:15;;;;;;;15.27;9.70;;;30.90;99.90;;;;;;5072306;28;20099;-51
2023/08/25 08:01:41;;;;;;;13.25;8.18;;;;;;;;;;5038315;28;20140;-51
2023/08/25 08:04:07;;;;;;;9.32;7.30;;;;;;;;;;5075869;28;20052;-51
2023/08/25 08:06:33;;;;;;;8.70;6.65;;;;;;;;;;5076157;28;20037;-52
2023/08/25 08:09:00;;;;;;;10.55;6.70;;;31.70;99.90;;;;;;5075904;28;20028;-51
2023/08/25 08:11:26;;;;;;;8.68;7.07;;;;;;;;;;5040837;28;20044;-51
2023/08/25 08:13:52;;;;;;;8.70;7.43;;;;;;;;;;5075815;28;20071;-51
2023/08/25 08:16:18;;;;;;;8.35;6.28;;;32.60;99.90;;;;;;5040520;28;20461;-51
2023/08/25 08:18:44;;;;;;;8.20;5.63;;;;;;;;;;5040111;28;20051;-52
2023/08/25 08:21:10;;;;;;;8.35;6.20;;;;;;;;;;5075820;28;20028;-51
2023/08/25 08:23:35;;;;;;;10.63;5.85;;;33.10;99.90;;;;;;5075335;28;20062;-52
2023/08/25 08:26:03;;;;;;;6.38;5.32;;;33.30;99.90;;;;;;5075545;28;20125;-51
2023/08/25 08:28:28;;;;;;;7.00;6.15;;;33.20;99.90;;;;;;5075338;28;20032;-51
2023/08/25 08:30:58;;;;;;;6.72;5.97;;;33.10;99.90;;;;;;5057386;28;20025;-51
2023/08/25 08:33:24;;;;;;;11.27;5.70;;;32.80;99.90;;;;;;5075705;28;20112;-52
2023/08/25 08:35:50;;;;;;;49.28;9.25;;;33.10;99.90;;;;;;5057320;28;20442;-51
2023/08/25 08:38:16;;;;;;;14.23;6.28;;;33.60;99.90;;;;;;5075207;28;20116;-51
2023/08/25 08:40:42;;;;;;;9.65;5.90;;;;;;;;;;5074706;28;20029;-51
2023/08/25 08:43:10;;;;;;;9.00;5.90;;;34.60;99.90;;;;;;5056001;28;20036;-51
2023/08/25 08:45:39;;;;;;;7.70;5.85;;;34.30;99.90;;;;;;5060726;28;20067;-51
2023/08/25 08:48:06;;;;;;;8.52;6.20;;;34.40;99.90;;;;;;5064120;28;20024;-51
2023/08/25 08:50:33;;;;;;;9.52;6.00;;;;;;;;;;5014253;28;20044;-50
2023/08/25 08:53:00;;;;;;;9.32;6.53;;;;;;;;;;5063153;28;20451;-51
2023/08/25 08:55:27;;;;;;;10.98;6.80;;;35.00;99.90;;;;;;4995843;28;20514;-50
2023/08/25 08:57:53;;;;;;;11.75;6.47;;;35.30;99.90;;;;;;4992850;28;20093;-51
2023/08/25 09:00:19;;;;;;;7.57;5.80;;;;;;;;;;4976956;28;20430;-52
2023/08/25 09:02:58;;;;;;;11.07;5.97;;;35.60;99.90;;;;;;4945035;28;20073;-52
2023/08/25 09:05:27;;;;;;;8.85;6.22;;;35.40;99.90;;;;;;4993472;28;20038;-53
2023/08/25 09:07:58;;;;;;;6.72;5.70;;;34.90;99.90;;;;;;4992571;28;20038;-50
2023/08/25 09:10:25;;;;;;;6.45;5.78;;;35.00;99.90;;;;;;4961115;28;20046;-50
2023/08/25 09:12:51;;;;;;;7.22;5.55;;;35.30;99.90;;;;;;4992062;28;20109;-51
2023/08/25 09:15:27;;;;;;;9.07;5.63;;;35.50;99.90;;;;;;4992831;28;20117;-50
2023/08/25 09:18:00;;;;;;;7.15;5.80;;;;;;;;;;4992957;28;20485;-51
2023/08/25 09:20:26;;;;;;;8.70;5.18;;;35.80;99.50;;;;;;4993146;28;20038;-50
2023/08/25 09:22:55;;;;;;;8.13;5.85;;;35.60;99.40;;;;;;4992541;28;20036;-51
2023/08/25 09:25:22;;;;;;;7.03;5.18;;;36.20;99.40;;;;;;4997092;28;20062;-50
2023/08/25 09:27:57;;;;;;;8.82;5.20;;;35.70;98.90;;;;;;5054315;28;20091;-51
2023/08/25 09:30:35;;;;;;;7.82;4.82;;;35.80;99.10;;;;;;5054339;28;20037;-50
2023/08/25 09:33:07;;;;;;;5.38;4.55;;;35.50;98.50;;;;;;5002798;28;20051;-51
2023/08/25 09:35:33;;;;;;;7.95;5.03;;;35.80;98.30;;;;;;5015603;28;20103;-51
2023/08/25 09:37:59;;;;;;;10.82;5.43;;;36.30;99.10;;;;;;5015800;28;20037;-50
2023/08/25 09:40:26;;;;;;;8.80;4.63;;;36.70;98.40;;;;;;5034569;28;20025;-50
2023/08/25 09:42:58;;;;;;;7.93;5.38;;;36.10;97.70;;;;;;5033916;28;20021;-50
2023/08/25 09:45:27;;;;;;;7.50;4.68;;;;;;;;;;5034031;28;20025;-51
2023/08/25 09:47:53;;;;;;;8.38;5.28;;;;;;;;;;5032119;28;20037;-52
2023/08/25 09:50:19;;;;;;;7.75;5.05;;;37.30;99.90;;;;;;5020206;28;20025;-51
2023/08/25 09:52:47;;;;;;;5.55;4.60;;;37.40;97.50;;;;;;5031274;28;20401;-51
2023/08/25 09:55:14;;;;;;;8.15;4.88;;;37.90;99.90;;;;;;5014120;28;20022;-50
2023/08/25 09:57:45;;;;;;;5.88;4.20;;;37.60;99.90;;;;;;5014282;28;20148;-51
2023/08/25 10:00:11;;;;;;;7.90;5.10;;;37.70;99.90;;;;;;5014143;28;20113;-51
2023/08/25 10:02:37;;;;;;;5.70;4.35;;;38.00;98.30;;;;;;5014139;28;20144;-51
2023/08/25 10:05:04;;;;;;;7.35;4.20;;;38.20;97.10;;;;;;5021789;28;20480;-51
2023/08/25 10:07:34;;;;;;;7.85;5.20;;;;;;;;;;4966708;28;20140;-50
2023/08/25 10:10:00;;;;;;;6.03;5.07;;;38.00;99.90;;;;;;5033393;28;20048;-51
2023/08/25 10:12:26;;;;;;;5.38;4.80;;;38.30;99.90;;;;;;5033780;28;20029;-51
2023/08/25 10:14:56;;;;;;;8.32;4.47;;;38.30;99.90;;;;;;5033643;28;20113;-51
2023/08/25 10:17:24;;;;;;;6.30;4.95;;;38.60;99.90;;;;;;5033612;28;20128;-50
2023/08/25 10:19:53;;;;;;;5.65;4.18;;;;;;;;;;5027725;28;20036;-51
2023/08/25 10:22:19;;;;;;;7.15;4.40;;;;;;;;;;5011800;28;20049;-50
2023/08/25 10:24:46;;;;;;;5.18;4.68;;;;;;;;;;5027829;28;20040;-50
2023/08/25 10:27:12;;;;;;;6.25;4.72;;;;;;;;;;5031275;28;20050;-51
2023/08/25 10:29:38;;;;;;;6.85;4.50;;;;;;;;;;5032638;28;20023;-51
2023/08/25 10:32:04;;;;;;;7.35;5.03;;;;;;;;;;5027660;28;20109;-50
2023/08/25 10:34:33;;;;;;;6.70;4.60;;;;;;;;;;4998667;28;20058;-50
2023/08/25 10:37:10;;;;;;;6.50;4.40;;;38.40;96.40;;;;;;5033973;28;20029;-51
2023/08/25 10:39:45;;;;;;;6.65;4.15;;;38.60;96.50;;;;;;5033928;28;20140;-50
2023/08/25 10:42:11;;;;;;;6.28;5.13;;;37.80;95.20;;;;;;5054618;28;20435;-50
2023/08/25 10:44:40;;;;;;;8.13;5.25;;;;;;;;;;4964386;28;20068;-51
2023/08/25 10:47:06;;;;;;;5.85;4.70;;;36.80;99.90;;;;;;5063315;28;20025;-51
2023/08/25 10:49:38;;;;;;;7.25;4.68;;;;;;;;;;5005009;28;20036;-52
2023/08/25 10:52:16;;;;;;;7.10;4.63;;;;;;;;;;5047870;28;20103;-50
2023/08/25 10:54:45;;;;;;;6.65;4.53;;;;;;;;;;5035978;28;20025;-51
2023/08/25 10:57:29;;;;;;;6.43;4.35;;;39.20;99.90;;;;;;5044445;28;20504;-51
2023/08/25 11:00:28;;;;;;;7.68;4.63;;;39.10;95.90;;;;;;5042465;28;20116;-50
2023/08/25 11:02:54;;;;;;;6.32;4.72;;;38.20;94.70;;;;;;5032868;28;20208;-50
2023/08/25 11:05:31;;;;;;;6.57;4.75;;;;;;;;;;4998294;28;20124;-50
2023/08/25 11:08:00;;;;;;;5.20;4.70;;;38.60;95.10;;;;;;5037626;28;20049;-50
2023/08/25 11:10:38;;;;;;;7.65;4.50;;;38.90;94.70;;;;;;5039510;28;20026;-51
2023/08/25 11:13:07;;;;;;;6.38;4.78;;;;;;;;;;5041386;28;20040;-50
2023/08/25 11:15:37;;;;;;;6.28;4.63;;;;;;;;;;5033859;28;20039;-52
2023/08/25 11:18:03;;;;;;;6.38;4.35;;;;;;;;;;5047733;28;20025;-51
2023/08/25 11:20:29;;;;;;;5.38;4.28;;;38.70;94.00;;;;;;5013969;28;20040;-50
2023/08/25 11:22:56;;;;;;;4.63;4.13;;;38.90;98.00;;;;;;5052523;28;20029;-50
2023/08/25 11:25:23;;;;;;;7.70;4.40;;;;;;;;;;5043625;28;20034;-51
2023/08/25 11:27:49;;;;;;;5.38;4.03;;;39.30;94.10;;;;;;5045764;28;20057;-51
2023/08/25 11:30:16;;;;;;;5.00;4.50;;;39.50;98.30;;;;;;5049972;28;20025;-50
2023/08/25 11:32:44;;;;;;;4.50;4.07;;;;;;;;;;5026269;28;20060;-50
2023/08/25 11:35:12;;;;;;;6.60;5.00;;;39.70;94.20;;;;;;5045864;28;20392;-51
2023/08/25 11:37:39;;;;;;;7.63;4.00;;;39.70;94.70;;;;;;5004041;28;20083;-51
2023/08/25 11:40:09;;;;;;;9.68;4.78;;;39.90;93.70;;;;;;5042585;28;20028;-51
2023/08/25 11:42:35;;;;;;;7.70;4.65;;;40.20;96.10;;;;;;5016135;28;20044;-51
2023/08/25 11:45:07;;;;;;;7.70;4.70;;;40.30;94.50;;;;;;5029689;28;20029;-51
2023/08/25 11:47:33;;;;;;;7.82;5.80;;;40.10;93.20;;;;;;5065018;28;20028;-52
2023/08/25 11:50:00;;;;;;;8.93;5.28;;;39.00;92.90;;;;;;5064108;28;20032;-51
2023/08/25 11:52:26;;;;;;;6.13;4.55;;;38.70;93.10;;;;;;5066480;28;20062;-51
2023/08/25 11:54:51;;;;;;;9.57;4.32;;;38.50;93.00;;;;;;5065610;28;20017;-51
2023/08/25 11:57:18;;;;;;;8.25;7.15;;;39.20;94.00;;;;;;5062632;28;20032;-52
2023/08/25 20:12:53;;;;;;;13.00;9.10;;;27.00;99.90;;;;;;5103571;22;1339418;-53
2023/08/25 20:15:19;;;;;;;12.40;8.73;;;27.00;99.90;;;;;;5052263;28;20029;-53
2023/08/25 20:17:45;;;;;;;10.13;8.30;;;26.90;99.90;;;;;;4960574;28;20518;-54
2023/08/25 20:20:11;;;;;;;11.75;8.35;;;26.80;99.90;;;;;;5051869;28;20040;-54
2023/08/25 20:22:37;;;;;;;13.23;9.63;;;26.70;99.90;;;;;;5052316;28;20025;-55
2023/08/25 20:25:03;;;;;;;12.05;9.00;;;26.50;99.90;;;;;;5052074;28;20456;-54
2023/08/25 20:27:32;;;;;;;11.32;10.05;;;26.50;99.90;;;;;;4944334;28;20059;-53
2023/08/25 20:29:57;;;;;;;11.55;9.90;;;26.50;99.90;;;;;;5052452;28;20482;-54
2023/08/25 20:32:23;;;;;;;13.63;9.65;;;26.50;99.90;;;;;;5052002;28;20104;-55
2023/08/25 20:34:49;;;;;;;15.40;9.73;;;26.40;99.90;;;;;;5052259;28;20088;-53
2023/08/25 20:37:14;;;;;;;10.93;8.85;;;26.40;99.90;;;;;;5051959;28;20064;-55
2023/08/25 20:39:40;;;;;;;10.30;9.13;;;26.40;99.90;;;;;;5052239;28;20380;-54
2023/08/25 20:42:06;;;;;;;11.60;8.85;;;26.40;99.90;;;;;;5000904;28;20056;-54
2023/08/25 20:44:32;;;;;;;10.65;8.50;;;26.30;99.90;;;;;;5049058;28;20033;-56
2023/08/25 20:46:59;;;;;;;15.75;8.75;;;26.30;99.90;;;;;;4992324;28;20042;-55
2023/08/25 20:49:24;;;;;;;9.90;8.30;;;26.40;99.90;;;;;;5055736;28;20033;-54
2023/08/25 20:51:50;;;;;;;12.00;8.55;;;26.40;99.90;;;;;;4988060;28;20040;-51
2023/08/25 20:54:16;;;;;;;11.88;9.02;;;26.50;99.90;;;;;;5055617;28;20024;-52
2023/08/25 20:56:42;;;;;;;11.43;9.25;;;26.30;99.90;;;;;;5056414;28;20124;-51
2023/08/25 20:59:07;;;;;;;15.60;9.38;;;26.20;99.90;;;;;;4985058;28;20033;-53
2023/08/25 21:01:34;;;;;;;12.50;9.50;;;26.10;99.90;;;;;;5036034;28;20033;-53
2023/08/25 21:03:59;;;;;;;13.40;8.32;;;26.00;99.90;;;;;;5036127;28;20021;-51
2023/08/25 21:06:26;;;;;;;12.80;8.30;;;25.90;99.90;;;;;;5036293;28;20025;-50
2023/08/25 21:08:52;;;;;;;12.38;9.60;;;25.90;99.90;;;;;;4969661;28;20081;-52
2023/08/25 21:11:18;;;;;;;14.27;9.65;;;26.00;99.90;;;;;;5035540;28;20084;-53
2023/08/25 21:13:44;;;;;;;14.70;9.30;;;26.00;99.90;;;;;;5037652;28;20021;-52
2023/08/25 21:16:10;;;;;;;17.63;10.13;;;26.20;99.90;;;;;;5043999;28;20045;-54
2023/08/25 21:18:36;;;;;;;17.23;10.30;;;26.30;99.90;;;;;;5055719;28;20112;-53
2023/08/25 21:21:02;;;;;;;15.35;10.07;;;26.40;99.90;;;;;;5055853;28;20024;-50
2023/08/25 21:23:27;;;;;;;11.80;9.85;;;26.10;99.90;;;;;;5055773;28;20036;-53